sensor_id;sensor_type;location;lat;lon;timestamp;pressure;altitude;pressure_sealevel;temperature;humidity
55664;BME280;41540;57.880;12.164;2023-06-19T00:06:00;100648.06;;;12.88;nan
55664;BME280;41540;57.880;12.164;2023-06-19T00:16:00;100647.19;;;12.87;nan
55664;BME280;41540;57.880;12.164;2023-06-19T00:26:01;100640.22;;;12.82;nan
55664;BME280;41540;57.880;12.164;2023-06-19T00:36:01;100722.09;;;13.24;nan
55664;BME280;41540;57.880;12.164;2023-06-19T00:46:02;100670.50;;;12.81;nan
55664;BME280;41540;57.880;12.164;2023-06-19T00:56:03;100653.97;;;12.73;nan
55664;BME280;41540;57.880;12.164;2023-06-19T01:06:13;100723.66;;;13.06;nan
55664;BME280;41540;57.880;12.164;2023-06-19T01:16:15;100666.09;;;12.73;nan
55664;BME280;41540;57.880;12.164;2023-06-19T01:26:16;100545.94;;;12.13;nan
55664;BME280;41540;57.880;12.164;2023-06-19T01:36:19;100506.13;;;12.11;nan
55664;BME280;41540;57.880;12.164;2023-06-19T01:46:20;100505.44;;;12.27;nan
55664;BME280;41540;57.880;12.164;2023-06-19T01:56:20;100495.59;;;11.97;nan
55664;BME280;41540;57.880;12.164;2023-06-19T02:06:22;100407.81;;;11.63;nan
55664;BME280;41540;57.880;12.164;2023-06-19T02:16:22;100384.16;;;11.36;nan
55664;BME280;41540;57.880;12.164;2023-06-19T02:26:23;100454.16;;;11.36;nan
55664;BME280;41540;57.880;12.164;2023-06-19T02:36:23;100518.31;;;11.49;nan
55664;BME280;41540;57.880;12.164;2023-06-19T02:46:23;100514.94;;;11.55;nan
55664;BME280;41540;57.880;12.164;2023-06-19T02:56:25;100554.75;;;11.55;nan
55664;BME280;41540;57.880;12.164;2023-06-19T03:06:26;100617.13;;;11.63;nan
55664;BME280;41540;57.880;12.164;2023-06-19T03:16:26;100524.56;;;11.62;nan
55664;BME280;41540;57.880;12.164;2023-06-19T03:26:27;100480.91;;;12.02;nan
55664;BME280;41540;57.880;12.164;2023-06-19T03:36:27;100434.81;;;12.80;nan
55664;BME280;41540;57.880;12.164;2023-06-19T03:46:28;100376.03;;;13.07;nan
55664;BME280;41540;57.880;12.164;2023-06-19T03:56:28;100310.28;;;13.59;nan
55664;BME280;41540;57.880;12.164;2023-06-19T04:06:28;100281.19;;;16.43;nan
55664;BME280;41540;57.880;12.164;2023-06-19T04:16:29;101021.72;;;22.24;nan
55664;BME280;41540;57.880;12.164;2023-06-19T04:26:29;101335.28;;;22.49;nan
55664;BME280;41540;57.880;12.164;2023-06-19T04:36:29;101255.47;;;22.78;nan
55664;BME280;41540;57.880;12.164;2023-06-19T04:46:31;101054.84;;;17.95;nan
55664;BME280;41540;57.880;12.164;2023-06-19T04:56:32;100757.09;;;15.32;nan
55664;BME280;41540;57.880;12.164;2023-06-19T05:06:32;100544.88;;;14.80;nan
55664;BME280;41540;57.880;12.164;2023-06-19T05:16:33;100331.13;;;14.10;nan
55664;BME280;41540;57.880;12.164;2023-06-19T05:26:34;100409.28;;;14.77;nan
55664;BME280;41540;57.880;12.164;2023-06-19T05:36:34;100485.63;;;15.43;nan
55664;BME280;41540;57.880;12.164;2023-06-19T05:46:35;100425.59;;;15.36;nan
55664;BME280;41540;57.880;12.164;2023-06-19T05:56:35;100394.56;;;17.18;nan
55664;BME280;41540;57.880;12.164;2023-06-19T06:06:39;100596.13;;;18.65;nan
55664;BME280;41540;57.880;12.164;2023-06-19T06:16:39;100849.84;;;18.58;nan
55664;BME280;41540;57.880;12.164;2023-06-19T06:26:40;100675.03;;;16.51;nan
55664;BME280;41540;57.880;12.164;2023-06-19T06:36:43;100563.31;;;16.75;nan
55664;BME280;41540;57.880;12.164;2023-06-19T06:46:45;100679.13;;;18.02;nan
55664;BME280;41540;57.880;12.164;2023-06-19T06:56:45;100744.09;;;17.63;nan
55664;BME280;41540;57.880;12.164;2023-06-19T07:06:53;100740.31;;;18.74;nan
55664;BME280;41540;57.880;12.164;2023-06-19T07:16:53;100990.78;;;19.32;nan
55664;BME280;41540;57.880;12.164;2023-06-19T07:26:54;101021.91;;;19.64;nan
55664;BME280;41540;57.880;12.164;2023-06-19T07:36:56;101121.09;;;20.23;nan
55664;BME280;41540;57.880;12.164;2023-06-19T07:46:59;101166.78;;;20.14;nan
55664;BME280;41540;57.880;12.164;2023-06-19T07:57:20;101133.19;;;19.62;nan
55664;BME280;41540;57.880;12.164;2023-06-19T08:07:34;101132.22;;;21.01;nan
55664;BME280;41540;57.880;12.164;2023-06-19T09:01:40;101122.75;;;21.42;nan
55664;BME280;41540;57.880;12.164;2023-06-19T09:22:09;101035.59;;;21.93;nan
55664;BME280;41540;57.880;12.164;2023-06-19T09:32:35;101103.75;;;21.71;nan
55664;BME280;41540;57.880;12.164;2023-06-19T09:43:01;101081.59;;;23.30;nan
55664;BME280;41540;57.880;12.164;2023-06-19T09:53:39;100971.56;;;23.27;nan
55664;BME280;41540;57.880;12.164;2023-06-19T10:03:44;100940.91;;;23.22;nan
55664;BME280;41540;57.880;12.164;2023-06-19T10:24:59;100854.69;;;23.18;nan
55664;BME280;41540;57.880;12.164;2023-06-19T11:33:19;100453.94;;;24.54;100.00
55664;BME280;41540;57.880;12.164;2023-06-19T11:43:26;100394.13;;;24.48;100.00
55664;BME280;41540;57.880;12.164;2023-06-19T11:53:27;100365.97;;;25.83;100.00
55664;BME280;41540;57.880;12.164;2023-06-19T12:03:27;100308.84;;;24.62;100.00
55664;BME280;41540;57.880;12.164;2023-06-19T12:13:27;100356.94;;;24.30;100.00
55664;BME280;41540;57.880;12.164;2023-06-19T12:23:28;100337.91;;;24.22;100.00
55664;BME280;41540;57.880;12.164;2023-06-19T12:33:28;100285.16;;;22.85;100.00
55664;BME280;41540;57.880;12.164;2023-06-19T12:44:00;100382.13;;;22.82;100.00
55664;BME280;41540;57.880;12.164;2023-06-19T16:10:05;100623.50;;;20.43;100.00
55664;BME280;41540;57.880;12.164;2023-06-19T16:20:06;100518.56;;;19.92;100.00
55664;BME280;41540;57.880;12.164;2023-06-19T16:30:12;100486.31;;;21.27;100.00
55664;BME280;41540;57.880;12.164;2023-06-19T16:40:12;100462.38;;;21.66;100.00
55664;BME280;41540;57.880;12.164;2023-06-19T16:50:29;100466.75;;;21.67;100.00
55664;BME280;41540;57.880;12.164;2023-06-19T17:00:34;100333.91;;;21.45;100.00
55664;BME280;41540;57.880;12.164;2023-06-19T19:00:08;100711.94;;;20.08;100.00
55664;BME280;41540;57.880;12.164;2023-06-19T20:36:36;101352.75;;;17.39;100.00
55664;BME280;41540;57.880;12.164;2023-06-19T20:46:44;101371.78;;;16.92;100.00
55664;BME280;41540;57.880;12.164;2023-06-19T20:57:16;101485.31;;;17.17;100.00
55664;BME280;41540;57.880;12.164;2023-06-19T21:29:07;101465.84;;;16.73;100.00
55664;BME280;41540;57.880;12.164;2023-06-19T21:39:08;101430.97;;;16.76;100.00
55664;BME280;41540;57.880;12.164;2023-06-19T21:49:16;101299.00;;;16.22;100.00
55664;BME280;41540;57.880;12.164;2023-06-19T21:59:25;101362.91;;;16.68;100.00
55664;BME280;41540;57.880;12.164;2023-06-19T22:09:32;101323.69;;;16.74;100.00
55664;BME280;41540;57.880;12.164;2023-06-19T22:19:33;101321.16;;;16.90;100.00
55664;BME280;41540;57.880;12.164;2023-06-19T22:29:34;101228.53;;;16.42;100.00
55664;BME280;41540;57.880;12.164;2023-06-19T22:39:35;101274.09;;;16.96;100.00
55664;BME280;41540;57.880;12.164;2023-06-19T22:49:35;101243.53;;;16.87;100.00
55664;BME280;41540;57.880;12.164;2023-06-19T22:59:36;101256.66;;;17.04;100.00
55664;BME280;41540;57.880;12.164;2023-06-19T23:09:37;101256.66;;;17.03;100.00
55664;BME280;41540;57.880;12.164;2023-06-19T23:19:37;101118.69;;;16.35;100.00
55664;BME280;41540;57.880;12.164;2023-06-19T23:29:42;101233.97;;;17.06;100.00
55664;BME280;41540;57.880;12.164;2023-06-19T23:39:49;101214.81;;;17.17;100.00
55664;BME280;41540;57.880;12.164;2023-06-19T23:50:23;101226.16;;;17.36;100.00
